aviador You're here:

LYBT Decoded Metar

BELGRADE BATAJNICA in SERBIA
Report Time2018-06-21 21:30:00
UTC Time2018-06-21 21:40:27
Flight Rules vfr VFR
Wind110° at 03 kt
W.Decomp.*RWY 12: 2.9 kt HW 0.7 kt LCW
W.Rank110° ranks 3
Current wind is below 110° avg. (6.7)
Visibility9999 m
Phenomena:N/A
Clouds:N/A
Expected CloudBase > 1,200 ft AGL from Temp-Dew spread
CeilingNone
Temp20°C (ISA +6)
Dew Point17°C (83% RH)
QNH1011 hPa
Density Alt1,234 ft
Elevation262 ft
Report Wrong Elevation
Raw Report
METAR LYBT 212130Z 11003KT CAVOK 20/17 Q1011 NOSIG=

Extra information for LYBT:More info

Metar Taf Metar & Taf Last 4 Metars F.Rules Stats Wind Profile Meteogram Temp Stats Airport Information Weather charts Add Link Nearby VenuesMetar ALERT Operation Metar Decoded Social comments